createdAt,value
2023-03-30T00:01:36.327Z,13.80
2023-03-30T00:05:49.853Z,14.70
2023-03-30T00:08:21.629Z,12.30
2023-03-30T00:11:06.151Z,14.30
2023-03-30T00:13:47.318Z,13.30
2023-03-30T00:17:26.301Z,12.50
2023-03-30T00:20:20.016Z,11.40
2023-03-30T00:23:14.341Z,13.10
2023-03-30T00:25:59.993Z,15.10
2023-03-30T00:29:36.441Z,12.40
2023-03-30T00:33:46.525Z,16.20
2023-03-30T00:36:47.411Z,15.50
2023-03-30T00:39:38.612Z,13.10
2023-03-30T00:42:37.853Z,13.50
2023-03-30T00:45:51.435Z,16.60
2023-03-30T00:49:10.755Z,17.20
2023-03-30T00:53:31.074Z,13.70
2023-03-30T00:57:39.394Z,12.60
2023-03-30T01:01:42.188Z,13.20
2023-03-30T01:05:04.752Z,14.40
2023-03-30T01:08:53.638Z,15.40
2023-03-30T01:12:06.709Z,15.60
2023-03-30T01:14:42.030Z,13.20
2023-03-30T01:21:24.500Z,15.70
2023-03-30T01:25:11.647Z,13.80
2023-03-30T01:28:51.254Z,15.90
2023-03-30T01:32:03.459Z,15.20
2023-03-30T01:34:52.019Z,15.20
2023-03-30T01:38:31.647Z,17.80
2023-03-30T01:42:37.722Z,19.80
2023-03-30T01:48:53.694Z,17.30
2023-03-30T01:53:11.899Z,20.00
2023-03-30T01:56:40.144Z,14.80
2023-03-30T02:00:06.795Z,17.90
2023-03-30T02:03:14.175Z,17.50
2023-03-30T02:06:54.609Z,17.50
2023-03-30T02:09:58.331Z,17.40
2023-03-30T02:13:32.074Z,19.10
2023-03-30T02:17:02.095Z,20.70
2023-03-30T02:20:13.807Z,20.50
2023-03-30T02:23:09.107Z,18.90
2023-03-30T02:25:58.726Z,20.10
2023-03-30T02:28:32.812Z,19.30
2023-03-30T02:31:45.906Z,20.50
2023-03-30T02:35:11.657Z,20.30
2023-03-30T02:38:21.716Z,19.30
2023-03-30T02:42:00.931Z,18.10
2023-03-30T02:45:15.697Z,21.60
2023-03-30T02:49:10.535Z,21.10
2023-03-30T02:52:25.018Z,21.30
2023-03-30T02:56:07.223Z,20.00
2023-03-30T03:00:26.183Z,19.10
2023-03-30T03:04:25.274Z,19.00
2023-03-30T03:08:08.346Z,18.30
2023-03-30T03:11:08.628Z,21.50
2023-03-30T03:15:38.087Z,17.90
2023-03-30T03:19:41.393Z,22.40
2023-03-30T03:23:17.762Z,21.90
2023-03-30T03:27:40.926Z,19.60
2023-03-30T03:32:06.374Z,22.90
2023-03-30T03:36:25.728Z,21.30
2023-03-30T03:40:29.943Z,23.10
2023-03-30T03:44:16.024Z,20.90
2023-03-30T03:47:33.088Z,21.80
2023-03-30T03:51:12.512Z,21.20
2023-03-30T03:55:41.427Z,21.90
2023-03-30T03:59:17.069Z,23.20
2023-03-30T04:02:24.975Z,20.20
2023-03-30T04:06:38.601Z,20.10
2023-03-30T04:10:34.729Z,23.40
2023-03-30T04:14:49.697Z,20.50
2023-03-30T04:18:51.903Z,23.10
2023-03-30T04:23:23.044Z,19.50
2023-03-30T04:27:49.822Z,21.30
2023-03-30T04:31:56.284Z,25.40
2023-03-30T04:35:33.545Z,24.00
2023-03-30T04:39:06.936Z,25.80
2023-03-30T04:43:17.174Z,20.60
2023-03-30T04:47:18.029Z,21.30
2023-03-30T04:51:42.908Z,21.30
2023-03-30T04:55:08.645Z,22.40
2023-03-30T04:58:48.239Z,24.50
2023-03-30T05:02:16.735Z,25.50
2023-03-30T05:06:21.858Z,20.90
2023-03-30T05:10:12.897Z,21.10
2023-03-30T05:14:41.702Z,20.50
2023-03-30T05:18:20.499Z,23.50
2023-03-30T05:22:54.438Z,19.30
2023-03-30T05:26:54.061Z,22.70
2023-03-30T05:30:57.142Z,21.90
2023-03-30T05:34:31.473Z,24.80
2023-03-30T05:38:32.751Z,23.90
2023-03-30T05:43:02.254Z,21.50
2023-03-30T05:47:08.450Z,21.60
2023-03-30T05:51:32.313Z,25.80
2023-03-30T05:55:51.157Z,21.30
2023-03-30T06:00:34.545Z,24.00
2023-03-30T06:03:37.483Z,23.50
2023-03-30T06:07:18.816Z,22.70
2023-03-30T06:10:38.079Z,21.40
2023-03-30T06:14:03.293Z,24.30
2023-03-30T06:17:10.039Z,22.20
2023-03-30T06:20:42.378Z,23.20
2023-03-30T06:24:27.057Z,19.30
2023-03-30T06:27:41.957Z,19.10
2023-03-30T06:30:35.363Z,20.50
2023-03-30T06:33:33.203Z,20.90
2023-03-30T06:36:58.530Z,20.40
2023-03-30T06:39:57.292Z,20.50
2023-03-30T06:43:09.638Z,19.50
2023-03-30T06:46:26.757Z,22.10
2023-03-30T06:49:58.387Z,23.30
2023-03-30T06:54:15.751Z,21.20
2023-03-30T06:58:15.502Z,23.20
2023-03-30T07:02:24.671Z,21.00
2023-03-30T07:06:23.630Z,25.60
2023-03-30T07:09:16.519Z,22.00
2023-03-30T07:12:23.790Z,19.90
2023-03-30T07:14:52.893Z,21.90
2023-03-30T07:18:25.355Z,27.50
2023-03-30T07:22:00.777Z,20.30
2023-03-30T07:25:40.349Z,16.90
2023-03-30T07:28:58.963Z,18.30
2023-03-30T07:32:18.178Z,18.80
2023-03-30T07:35:43.518Z,18.00
2023-03-30T07:39:15.649Z,16.40
2023-03-30T07:42:22.720Z,19.70
2023-03-30T07:45:23.220Z,19.70
2023-03-30T07:47:59.763Z,22.00
2023-03-30T07:51:13.934Z,25.20
2023-03-30T07:55:46.943Z,22.30
2023-03-30T07:59:27.390Z,16.10
2023-03-30T08:03:00.820Z,17.40
2023-03-30T08:06:41.465Z,18.80
2023-03-30T08:10:19.074Z,16.00
2023-03-30T08:13:40.470Z,16.70
2023-03-30T08:16:48.281Z,17.40
2023-03-30T08:20:04.406Z,18.90
2023-03-30T08:23:06.668Z,16.80
2023-03-30T08:26:47.636Z,18.20
2023-03-30T08:30:49.448Z,14.20
2023-03-30T08:34:18.349Z,16.10
2023-03-30T08:38:37.787Z,14.60
2023-03-30T08:41:48.818Z,16.50
2023-03-30T08:45:34.857Z,15.80
2023-03-30T08:49:28.973Z,14.70
2023-03-30T08:52:54.255Z,17.00
2023-03-30T08:56:29.081Z,14.20
2023-03-30T09:00:53.693Z,15.00
2023-03-30T09:05:03.361Z,17.80
2023-03-30T09:09:06.472Z,13.60
2023-03-30T09:13:18.917Z,13.70
2023-03-30T09:17:34.126Z,16.70
2023-03-30T09:21:17.704Z,16.40
2023-03-30T09:24:58.333Z,12.00
2023-03-30T09:29:25.970Z,11.70
2023-03-30T09:32:42.152Z,11.00
2023-03-30T09:36:00.125Z,19.10
2023-03-30T09:40:18.506Z,13.40
2023-03-30T09:44:19.265Z,12.70
2023-03-30T09:48:01.876Z,12.50
2023-03-30T09:51:42.211Z,12.70
2023-03-30T09:55:55.533Z,13.40
2023-03-30T09:59:58.264Z,12.60
2023-03-30T10:03:39.604Z,11.20
2023-03-30T10:08:01.695Z,13.80
2023-03-30T10:11:42.053Z,17.00
2023-03-30T10:15:39.209Z,14.10
2023-03-30T10:19:55.323Z,13.30
2023-03-30T10:23:24.617Z,11.20
2023-03-30T10:27:28.680Z,17.00
2023-03-30T10:31:38.144Z,12.60
2023-03-30T10:35:49.645Z,12.50
2023-03-30T10:39:59.255Z,14.30
2023-03-30T10:43:30.386Z,11.80
2023-03-30T10:46:44.800Z,11.30
2023-03-30T10:50:04.182Z,13.30
2023-03-30T10:53:19.741Z,16.50
2023-03-30T10:57:23.136Z,14.50
2023-03-30T11:00:58.658Z,14.30
2023-03-30T11:03:57.686Z,14.70
2023-03-30T11:06:48.598Z,15.00
2023-03-30T11:09:25.405Z,12.90
2023-03-30T11:12:39.816Z,13.90
2023-03-30T11:16:52.054Z,11.80
2023-03-30T11:20:55.733Z,13.80
2023-03-30T11:24:55.480Z,12.60
2023-03-30T11:27:46.812Z,17.70
2023-03-30T11:30:59.641Z,13.10
2023-03-30T11:34:24.192Z,12.50
2023-03-30T11:37:33.469Z,12.40
2023-03-30T11:40:42.158Z,12.90
2023-03-30T11:43:39.547Z,15.00
2023-03-30T11:46:45.623Z,13.40
2023-03-30T11:50:25.482Z,15.70
2023-03-30T11:54:39.053Z,13.60
2023-03-30T11:58:46.697Z,12.10
2023-03-30T12:02:30.953Z,13.50
2023-03-30T12:05:48.549Z,11.30
2023-03-30T12:09:40.963Z,12.20
2023-03-30T12:12:59.699Z,13.60
2023-03-30T12:16:32.263Z,12.40
2023-03-30T12:19:56.712Z,10.90
2023-03-30T12:23:56.528Z,12.00
2023-03-30T12:32:29.627Z,13.70
2023-03-30T13:29:37.188Z,12.20
2023-03-30T13:33:43.872Z,14.20
2023-03-30T13:37:48.943Z,11.90
2023-03-30T13:42:15.517Z,11.00
2023-03-30T13:46:13.295Z,11.10
2023-03-30T13:50:30.402Z,16.90
2023-03-30T13:54:15.353Z,20.90
2023-03-30T13:58:35.343Z,15.20
2023-03-30T14:02:15.600Z,15.70
2023-03-30T14:05:36.891Z,28.20
2023-03-30T14:09:37.898Z,19.60
2023-03-30T14:13:14.739Z,23.50
2023-03-30T14:16:14.017Z,28.10
2023-03-30T14:20:05.456Z,30.40
2023-03-30T14:24:17.552Z,50.20
2023-03-30T14:28:35.118Z,55.60
2023-03-30T14:32:27.186Z,70.00
2023-03-30T14:36:24.377Z,54.00
2023-03-30T14:56:20.099Z,16.60
2023-03-30T15:00:37.883Z,21.60
2023-03-30T15:08:44.423Z,6.30
2023-03-30T15:12:34.242Z,4.00
2023-03-30T15:16:43.893Z,5.20
2023-03-30T15:21:04.323Z,9.70
2023-03-30T15:25:19.236Z,9.90
2023-03-30T15:29:49.589Z,7.90
2023-03-30T15:34:24.204Z,11.60
2023-03-30T16:01:35.075Z,6.90
2023-03-30T16:05:54.213Z,7.80
2023-03-30T16:10:06.160Z,5.80
2023-03-30T16:14:25.828Z,5.50
2023-03-30T16:18:39.454Z,5.70
2023-03-30T16:23:01.217Z,6.50
2023-03-30T16:27:12.732Z,4.80
2023-03-30T16:31:21.872Z,5.10
2023-03-30T16:35:34.671Z,6.80
2023-03-30T16:39:59.417Z,12.80
2023-03-30T16:44:03.836Z,8.80
2023-03-30T16:47:51.007Z,6.00
2023-03-30T16:52:20.429Z,7.40
2023-03-30T16:56:23.530Z,8.80
2023-03-30T17:00:58.270Z,6.60
2023-03-30T17:05:16.323Z,9.20
2023-03-30T17:38:09.506Z,7.70
2023-03-30T17:42:17.790Z,10.70
2023-03-30T17:46:47.093Z,6.00
2023-03-30T17:51:06.624Z,7.70
2023-03-30T17:55:15.457Z,8.70
2023-03-30T18:17:28.039Z,15.10
2023-03-30T18:34:00.702Z,17.00
2023-03-30T18:38:13.000Z,20.40
2023-03-30T18:42:43.680Z,24.10
2023-03-30T18:47:12.693Z,18.10
2023-03-30T18:51:33.218Z,12.50
2023-03-30T18:55:51.019Z,8.80
2023-03-30T19:00:11.718Z,12.00
2023-03-30T19:04:23.597Z,9.50
2023-03-30T19:40:43.226Z,9.30
2023-03-30T19:44:50.421Z,9.80
2023-03-30T19:48:51.468Z,6.10
2023-03-30T19:53:03.340Z,5.80
2023-03-30T19:57:11.879Z,13.50
2023-03-30T21:17:53.176Z,18.70
2023-03-30T21:22:22.369Z,11.50
2023-03-30T21:26:51.716Z,11.40
2023-03-30T21:31:14.842Z,9.90
2023-03-30T21:57:11.012Z,6.30
2023-03-30T22:01:31.451Z,7.70
2023-03-30T22:06:00.396Z,5.10
2023-03-30T22:10:30.965Z,6.10
2023-03-30T22:14:48.740Z,7.00
2023-03-30T22:44:41.777Z,9.40
2023-03-30T22:48:59.878Z,7.00
2023-03-30T22:53:29.161Z,10.30
2023-03-30T22:57:58.570Z,8.00
2023-03-30T23:02:27.919Z,7.20
2023-03-30T23:06:58.365Z,9.80
2023-03-30T23:32:39.172Z,8.10
2023-03-30T23:36:08.681Z,9.20
2023-03-30T23:40:38.412Z,6.70
2023-03-30T23:44:56.558Z,7.70
